sensor_id;sensor_type;location;lat;lon;timestamp;P1;durP1;ratioP1;P2;durP2;ratioP2
11078;SDS011;5592;49.234;7.268;2024-01-30T00:00:54;21.87;;;10.40;;
11078;SDS011;5592;49.234;7.268;2024-01-30T00:03:20;19.10;;;10.83;;
11078;SDS011;5592;49.234;7.268;2024-01-30T00:05:46;18.67;;;10.17;;
11078;SDS011;5592;49.234;7.268;2024-01-30T00:08:12;19.10;;;11.33;;
11078;SDS011;5592;49.234;7.268;2024-01-30T00:10:37;22.13;;;12.10;;
11078;SDS011;5592;49.234;7.268;2024-01-30T00:13:03;23.33;;;11.50;;
11078;SDS011;5592;49.234;7.268;2024-01-30T00:15:28;21.10;;;11.03;;
11078;SDS011;5592;49.234;7.268;2024-01-30T00:17:54;19.50;;;11.10;;
11078;SDS011;5592;49.234;7.268;2024-01-30T00:20:20;25.87;;;11.63;;
11078;SDS011;5592;49.234;7.268;2024-01-30T00:22:45;26.93;;;12.47;;
11078;SDS011;5592;49.234;7.268;2024-01-30T00:25:11;32.83;;;13.97;;
11078;SDS011;5592;49.234;7.268;2024-01-30T00:27:36;31.40;;;12.87;;
11078;SDS011;5592;49.234;7.268;2024-01-30T00:30:02;30.10;;;13.50;;
11078;SDS011;5592;49.234;7.268;2024-01-30T00:32:28;29.47;;;13.67;;
11078;SDS011;5592;49.234;7.268;2024-01-30T00:34:53;30.80;;;14.80;;
11078;SDS011;5592;49.234;7.268;2024-01-30T00:37:19;42.30;;;15.90;;
11078;SDS011;5592;49.234;7.268;2024-01-30T00:39:45;26.43;;;13.23;;
11078;SDS011;5592;49.234;7.268;2024-01-30T00:42:10;28.43;;;13.03;;
11078;SDS011;5592;49.234;7.268;2024-01-30T00:44:36;24.00;;;13.10;;
11078;SDS011;5592;49.234;7.268;2024-01-30T00:47:04;31.90;;;14.60;;
11078;SDS011;5592;49.234;7.268;2024-01-30T00:49:30;46.03;;;12.70;;
11078;SDS011;5592;49.234;7.268;2024-01-30T00:51:56;25.13;;;13.30;;
11078;SDS011;5592;49.234;7.268;2024-01-30T00:54:24;29.30;;;13.63;;
11078;SDS011;5592;49.234;7.268;2024-01-30T00:56:50;28.57;;;13.97;;
11078;SDS011;5592;49.234;7.268;2024-01-30T00:59:15;26.17;;;12.97;;
11078;SDS011;5592;49.234;7.268;2024-01-30T01:01:41;22.77;;;12.80;;
11078;SDS011;5592;49.234;7.268;2024-01-30T01:04:06;24.80;;;12.07;;
11078;SDS011;5592;49.234;7.268;2024-01-30T01:06:32;23.30;;;12.50;;
11078;SDS011;5592;49.234;7.268;2024-01-30T01:08:57;22.20;;;12.80;;
11078;SDS011;5592;49.234;7.268;2024-01-30T01:11:23;23.23;;;13.23;;
11078;SDS011;5592;49.234;7.268;2024-01-30T01:13:48;20.43;;;10.67;;
11078;SDS011;5592;49.234;7.268;2024-01-30T01:16:14;21.23;;;12.60;;
11078;SDS011;5592;49.234;7.268;2024-01-30T01:18:39;19.37;;;11.73;;
11078;SDS011;5592;49.234;7.268;2024-01-30T01:21:05;22.60;;;11.20;;
11078;SDS011;5592;49.234;7.268;2024-01-30T01:23:31;22.33;;;13.23;;
11078;SDS011;5592;49.234;7.268;2024-01-30T01:25:56;25.87;;;12.70;;
11078;SDS011;5592;49.234;7.268;2024-01-30T01:28:24;20.30;;;11.57;;
11078;SDS011;5592;49.234;7.268;2024-01-30T01:30:50;24.53;;;11.30;;
11078;SDS011;5592;49.234;7.268;2024-01-30T01:33:16;25.37;;;13.40;;
11078;SDS011;5592;49.234;7.268;2024-01-30T01:35:42;24.00;;;12.50;;
11078;SDS011;5592;49.234;7.268;2024-01-30T01:38:08;22.33;;;12.43;;
11078;SDS011;5592;49.234;7.268;2024-01-30T01:40:33;27.30;;;13.27;;
11078;SDS011;5592;49.234;7.268;2024-01-30T01:43:02;26.77;;;13.30;;
11078;SDS011;5592;49.234;7.268;2024-01-30T01:45:28;30.77;;;14.70;;
11078;SDS011;5592;49.234;7.268;2024-01-30T01:47:54;42.30;;;16.40;;
11078;SDS011;5592;49.234;7.268;2024-01-30T01:50:22;33.20;;;13.90;;
11078;SDS011;5592;49.234;7.268;2024-01-30T01:52:48;39.60;;;13.97;;
11078;SDS011;5592;49.234;7.268;2024-01-30T01:55:15;26.13;;;12.33;;
11078;SDS011;5592;49.234;7.268;2024-01-30T01:57:43;44.53;;;14.80;;
11078;SDS011;5592;49.234;7.268;2024-01-30T02:00:10;57.53;;;14.87;;
11078;SDS011;5592;49.234;7.268;2024-01-30T02:02:37;27.73;;;12.63;;
11078;SDS011;5592;49.234;7.268;2024-01-30T02:05:04;25.97;;;12.60;;
11078;SDS011;5592;49.234;7.268;2024-01-30T02:07:30;28.70;;;12.67;;
11078;SDS011;5592;49.234;7.268;2024-01-30T02:09:56;22.87;;;12.10;;
11078;SDS011;5592;49.234;7.268;2024-01-30T02:12:22;28.40;;;12.83;;
11078;SDS011;5592;49.234;7.268;2024-01-30T02:14:48;30.50;;;14.63;;
11078;SDS011;5592;49.234;7.268;2024-01-30T02:17:14;28.63;;;13.17;;
11078;SDS011;5592;49.234;7.268;2024-01-30T02:19:42;28.37;;;13.30;;
11078;SDS011;5592;49.234;7.268;2024-01-30T02:22:08;22.97;;;11.27;;
11078;SDS011;5592;49.234;7.268;2024-01-30T02:24:34;26.33;;;12.77;;
11078;SDS011;5592;49.234;7.268;2024-01-30T02:27:00;28.20;;;13.03;;
11078;SDS011;5592;49.234;7.268;2024-01-30T02:29:25;35.43;;;14.63;;
11078;SDS011;5592;49.234;7.268;2024-01-30T02:31:51;21.50;;;12.57;;
11078;SDS011;5592;49.234;7.268;2024-01-30T02:34:17;26.17;;;12.63;;
11078;SDS011;5592;49.234;7.268;2024-01-30T02:36:44;41.33;;;17.00;;
11078;SDS011;5592;49.234;7.268;2024-01-30T02:39:09;23.37;;;13.50;;
11078;SDS011;5592;49.234;7.268;2024-01-30T02:41:35;46.97;;;15.50;;
11078;SDS011;5592;49.234;7.268;2024-01-30T02:44:01;36.83;;;11.80;;
11078;SDS011;5592;49.234;7.268;2024-01-30T02:46:27;22.30;;;11.70;;
11078;SDS011;5592;49.234;7.268;2024-01-30T02:48:53;25.63;;;13.20;;
11078;SDS011;5592;49.234;7.268;2024-01-30T02:51:18;26.03;;;12.83;;
11078;SDS011;5592;49.234;7.268;2024-01-30T02:53:44;51.00;;;14.33;;
11078;SDS011;5592;49.234;7.268;2024-01-30T02:56:12;30.00;;;13.77;;
11078;SDS011;5592;49.234;7.268;2024-01-30T02:58:39;57.67;;;14.20;;
11078;SDS011;5592;49.234;7.268;2024-01-30T03:01:05;28.70;;;14.80;;
11078;SDS011;5592;49.234;7.268;2024-01-30T03:03:31;27.93;;;11.83;;
11078;SDS011;5592;49.234;7.268;2024-01-30T03:05:58;19.97;;;10.70;;
11078;SDS011;5592;49.234;7.268;2024-01-30T03:08:23;23.77;;;12.10;;
11078;SDS011;5592;49.234;7.268;2024-01-30T03:10:49;36.90;;;12.80;;
11078;SDS011;5592;49.234;7.268;2024-01-30T03:13:14;28.97;;;12.67;;
11078;SDS011;5592;49.234;7.268;2024-01-30T03:15:40;25.90;;;11.77;;
11078;SDS011;5592;49.234;7.268;2024-01-30T03:18:05;23.07;;;12.90;;
11078;SDS011;5592;49.234;7.268;2024-01-30T03:20:31;46.87;;;17.10;;
11078;SDS011;5592;49.234;7.268;2024-01-30T03:22:57;42.57;;;14.40;;
11078;SDS011;5592;49.234;7.268;2024-01-30T03:25:24;32.10;;;12.03;;
11078;SDS011;5592;49.234;7.268;2024-01-30T03:27:50;32.13;;;15.10;;
11078;SDS011;5592;49.234;7.268;2024-01-30T03:30:16;27.57;;;12.57;;
11078;SDS011;5592;49.234;7.268;2024-01-30T03:32:42;24.37;;;12.13;;
11078;SDS011;5592;49.234;7.268;2024-01-30T03:35:08;19.43;;;11.77;;
11078;SDS011;5592;49.234;7.268;2024-01-30T03:37:34;24.90;;;12.73;;
11078;SDS011;5592;49.234;7.268;2024-01-30T03:39:59;26.37;;;12.47;;
11078;SDS011;5592;49.234;7.268;2024-01-30T03:42:25;20.83;;;11.53;;
11078;SDS011;5592;49.234;7.268;2024-01-30T03:44:50;20.90;;;12.70;;
11078;SDS011;5592;49.234;7.268;2024-01-30T03:47:20;22.70;;;12.40;;
11078;SDS011;5592;49.234;7.268;2024-01-30T03:49:45;25.40;;;14.13;;
11078;SDS011;5592;49.234;7.268;2024-01-30T03:52:11;31.80;;;14.10;;
11078;SDS011;5592;49.234;7.268;2024-01-30T03:54:37;54.73;;;15.73;;
11078;SDS011;5592;49.234;7.268;2024-01-30T03:57:02;43.50;;;14.97;;
11078;SDS011;5592;49.234;7.268;2024-01-30T03:59:28;25.00;;;12.40;;
11078;SDS011;5592;49.234;7.268;2024-01-30T04:01:54;28.73;;;13.67;;
11078;SDS011;5592;49.234;7.268;2024-01-30T04:04:19;22.40;;;12.13;;
11078;SDS011;5592;49.234;7.268;2024-01-30T04:06:45;23.30;;;12.70;;
11078;SDS011;5592;49.234;7.268;2024-01-30T04:09:11;20.90;;;12.73;;
11078;SDS011;5592;49.234;7.268;2024-01-30T04:11:38;27.13;;;13.57;;
11078;SDS011;5592;49.234;7.268;2024-01-30T04:14:04;18.87;;;11.97;;
11078;SDS011;5592;49.234;7.268;2024-01-30T04:16:29;26.93;;;13.30;;
11078;SDS011;5592;49.234;7.268;2024-01-30T04:18:55;21.53;;;11.43;;
11078;SDS011;5592;49.234;7.268;2024-01-30T04:21:21;19.83;;;10.60;;
11078;SDS011;5592;49.234;7.268;2024-01-30T04:23:47;22.07;;;11.10;;
11078;SDS011;5592;49.234;7.268;2024-01-30T04:26:13;22.53;;;12.20;;
11078;SDS011;5592;49.234;7.268;2024-01-30T04:28:41;16.63;;;10.47;;
11078;SDS011;5592;49.234;7.268;2024-01-30T04:31:06;18.83;;;11.40;;
11078;SDS011;5592;49.234;7.268;2024-01-30T04:33:32;22.30;;;12.90;;
11078;SDS011;5592;49.234;7.268;2024-01-30T04:35:58;19.77;;;11.80;;
11078;SDS011;5592;49.234;7.268;2024-01-30T04:38:23;21.00;;;11.47;;
11078;SDS011;5592;49.234;7.268;2024-01-30T04:40:49;23.73;;;12.60;;
11078;SDS011;5592;49.234;7.268;2024-01-30T04:43:14;24.83;;;12.80;;
11078;SDS011;5592;49.234;7.268;2024-01-30T04:45:40;22.90;;;11.37;;
11078;SDS011;5592;49.234;7.268;2024-01-30T04:48:06;21.50;;;13.13;;
11078;SDS011;5592;49.234;7.268;2024-01-30T04:50:32;18.47;;;11.70;;
11078;SDS011;5592;49.234;7.268;2024-01-30T04:52:58;18.87;;;11.83;;
11078;SDS011;5592;49.234;7.268;2024-01-30T04:55:23;17.20;;;11.40;;
11078;SDS011;5592;49.234;7.268;2024-01-30T04:57:50;20.23;;;11.50;;
11078;SDS011;5592;49.234;7.268;2024-01-30T05:00:16;17.80;;;11.77;;
11078;SDS011;5592;49.234;7.268;2024-01-30T05:02:42;15.93;;;9.93;;
11078;SDS011;5592;49.234;7.268;2024-01-30T05:05:08;15.67;;;10.20;;
11078;SDS011;5592;49.234;7.268;2024-01-30T05:07:34;24.70;;;11.40;;
11078;SDS011;5592;49.234;7.268;2024-01-30T05:10:00;21.10;;;11.40;;
11078;SDS011;5592;49.234;7.268;2024-01-30T05:12:25;17.10;;;11.10;;
11078;SDS011;5592;49.234;7.268;2024-01-30T05:14:51;18.87;;;10.00;;
11078;SDS011;5592;49.234;7.268;2024-01-30T05:17:17;17.83;;;10.57;;
11078;SDS011;5592;49.234;7.268;2024-01-30T05:19:43;17.83;;;11.80;;
11078;SDS011;5592;49.234;7.268;2024-01-30T05:22:08;17.57;;;10.80;;
11078;SDS011;5592;49.234;7.268;2024-01-30T05:24:34;16.10;;;10.60;;
11078;SDS011;5592;49.234;7.268;2024-01-30T05:27:00;16.97;;;10.50;;
11078;SDS011;5592;49.234;7.268;2024-01-30T05:29:26;17.67;;;10.50;;
11078;SDS011;5592;49.234;7.268;2024-01-30T05:31:52;14.70;;;10.40;;
11078;SDS011;5592;49.234;7.268;2024-01-30T05:34:17;16.60;;;10.17;;
11078;SDS011;5592;49.234;7.268;2024-01-30T05:36:43;14.07;;;10.33;;
11078;SDS011;5592;49.234;7.268;2024-01-30T05:39:08;18.33;;;11.03;;
11078;SDS011;5592;49.234;7.268;2024-01-30T05:41:35;18.70;;;10.93;;
11078;SDS011;5592;49.234;7.268;2024-01-30T05:44:00;17.80;;;11.70;;
11078;SDS011;5592;49.234;7.268;2024-01-30T05:46:26;22.10;;;11.00;;
11078;SDS011;5592;49.234;7.268;2024-01-30T05:48:52;20.13;;;11.43;;
11078;SDS011;5592;49.234;7.268;2024-01-30T05:51:17;15.87;;;10.57;;
11078;SDS011;5592;49.234;7.268;2024-01-30T05:53:43;15.67;;;10.50;;
11078;SDS011;5592;49.234;7.268;2024-01-30T05:56:08;16.60;;;10.10;;
11078;SDS011;5592;49.234;7.268;2024-01-30T05:58:34;18.40;;;10.10;;
11078;SDS011;5592;49.234;7.268;2024-01-30T06:01:00;14.77;;;10.23;;
11078;SDS011;5592;49.234;7.268;2024-01-30T06:03:25;18.77;;;10.80;;
11078;SDS011;5592;49.234;7.268;2024-01-30T06:05:51;21.30;;;11.27;;
11078;SDS011;5592;49.234;7.268;2024-01-30T06:08:17;22.90;;;11.80;;
11078;SDS011;5592;49.234;7.268;2024-01-30T06:10:43;19.77;;;11.10;;
11078;SDS011;5592;49.234;7.268;2024-01-30T06:13:08;14.83;;;9.90;;
11078;SDS011;5592;49.234;7.268;2024-01-30T06:15:34;18.10;;;11.13;;
11078;SDS011;5592;49.234;7.268;2024-01-30T06:17:59;19.57;;;11.33;;
11078;SDS011;5592;49.234;7.268;2024-01-30T06:20:25;21.00;;;11.43;;
11078;SDS011;5592;49.234;7.268;2024-01-30T06:22:50;20.50;;;11.37;;
11078;SDS011;5592;49.234;7.268;2024-01-30T06:25:16;23.23;;;11.20;;
11078;SDS011;5592;49.234;7.268;2024-01-30T06:27:42;18.37;;;10.97;;
11078;SDS011;5592;49.234;7.268;2024-01-30T06:30:07;20.27;;;11.43;;
11078;SDS011;5592;49.234;7.268;2024-01-30T06:32:35;27.30;;;10.67;;
11078;SDS011;5592;49.234;7.268;2024-01-30T06:35:01;19.47;;;12.10;;
11078;SDS011;5592;49.234;7.268;2024-01-30T06:37:27;17.47;;;10.63;;
11078;SDS011;5592;49.234;7.268;2024-01-30T06:39:52;24.63;;;12.90;;
11078;SDS011;5592;49.234;7.268;2024-01-30T06:42:18;23.40;;;12.90;;
11078;SDS011;5592;49.234;7.268;2024-01-30T06:44:44;17.70;;;11.53;;
11078;SDS011;5592;49.234;7.268;2024-01-30T06:47:10;22.23;;;12.37;;
11078;SDS011;5592;49.234;7.268;2024-01-30T06:49:36;22.50;;;12.60;;
11078;SDS011;5592;49.234;7.268;2024-01-30T06:52:05;20.20;;;13.57;;
11078;SDS011;5592;49.234;7.268;2024-01-30T06:54:31;21.57;;;13.10;;
11078;SDS011;5592;49.234;7.268;2024-01-30T06:56:58;20.37;;;12.17;;
11078;SDS011;5592;49.234;7.268;2024-01-30T06:59:25;21.47;;;12.50;;
11078;SDS011;5592;49.234;7.268;2024-01-30T07:01:53;26.83;;;11.43;;
11078;SDS011;5592;49.234;7.268;2024-01-30T07:04:19;17.27;;;10.90;;
11078;SDS011;5592;49.234;7.268;2024-01-30T07:06:47;18.53;;;11.50;;
11078;SDS011;5592;49.234;7.268;2024-01-30T07:09:22;20.07;;;12.13;;
11078;SDS011;5592;49.234;7.268;2024-01-30T07:11:50;20.20;;;11.97;;
11078;SDS011;5592;49.234;7.268;2024-01-30T07:14:16;17.07;;;11.17;;
11078;SDS011;5592;49.234;7.268;2024-01-30T07:16:45;21.30;;;11.30;;
11078;SDS011;5592;49.234;7.268;2024-01-30T07:19:11;19.00;;;11.13;;
11078;SDS011;5592;49.234;7.268;2024-01-30T07:21:38;18.87;;;11.37;;
11078;SDS011;5592;49.234;7.268;2024-01-30T07:24:05;20.70;;;11.60;;
11078;SDS011;5592;49.234;7.268;2024-01-30T07:26:32;16.43;;;10.93;;
11078;SDS011;5592;49.234;7.268;2024-01-30T07:28:58;21.00;;;10.60;;
11078;SDS011;5592;49.234;7.268;2024-01-30T07:31:24;16.60;;;11.40;;
11078;SDS011;5592;49.234;7.268;2024-01-30T07:33:49;25.73;;;11.20;;
11078;SDS011;5592;49.234;7.268;2024-01-30T07:36:15;16.20;;;12.10;;
11078;SDS011;5592;49.234;7.268;2024-01-30T07:38:41;20.77;;;11.13;;
11078;SDS011;5592;49.234;7.268;2024-01-30T07:41:06;15.27;;;10.77;;
11078;SDS011;5592;49.234;7.268;2024-01-30T07:43:35;21.50;;;10.37;;
11078;SDS011;5592;49.234;7.268;2024-01-30T07:46:00;20.50;;;11.97;;
11078;SDS011;5592;49.234;7.268;2024-01-30T07:48:28;17.93;;;11.97;;
11078;SDS011;5592;49.234;7.268;2024-01-30T07:50:53;20.20;;;10.70;;
11078;SDS011;5592;49.234;7.268;2024-01-30T07:53:19;20.40;;;11.03;;
11078;SDS011;5592;49.234;7.268;2024-01-30T07:55:44;15.00;;;10.67;;
11078;SDS011;5592;49.234;7.268;2024-01-30T07:58:11;17.60;;;11.07;;
11078;SDS011;5592;49.234;7.268;2024-01-30T08:00:38;17.03;;;10.57;;
11078;SDS011;5592;49.234;7.268;2024-01-30T08:03:04;21.43;;;11.57;;
11078;SDS011;5592;49.234;7.268;2024-01-30T08:05:36;19.53;;;10.27;;
11078;SDS011;5592;49.234;7.268;2024-01-30T08:08:04;16.00;;;11.10;;
11078;SDS011;5592;49.234;7.268;2024-01-30T08:10:29;21.93;;;11.80;;
11078;SDS011;5592;49.234;7.268;2024-01-30T08:12:55;16.53;;;10.90;;
11078;SDS011;5592;49.234;7.268;2024-01-30T08:15:21;20.50;;;11.07;;
11078;SDS011;5592;49.234;7.268;2024-01-30T08:17:49;16.93;;;10.67;;
11078;SDS011;5592;49.234;7.268;2024-01-30T08:20:24;17.47;;;11.57;;
11078;SDS011;5592;49.234;7.268;2024-01-30T08:22:54;16.77;;;9.20;;
11078;SDS011;5592;49.234;7.268;2024-01-30T08:25:19;17.27;;;9.80;;
11078;SDS011;5592;49.234;7.268;2024-01-30T08:27:45;17.60;;;10.40;;
11078;SDS011;5592;49.234;7.268;2024-01-30T08:30:11;17.87;;;10.70;;
11078;SDS011;5592;49.234;7.268;2024-01-30T08:32:42;13.83;;;9.83;;
11078;SDS011;5592;49.234;7.268;2024-01-30T08:35:08;14.33;;;10.23;;
11078;SDS011;5592;49.234;7.268;2024-01-30T08:37:34;19.00;;;11.60;;
11078;SDS011;5592;49.234;7.268;2024-01-30T08:39:59;20.77;;;11.57;;
11078;SDS011;5592;49.234;7.268;2024-01-30T08:42:26;17.03;;;11.30;;
11078;SDS011;5592;49.234;7.268;2024-01-30T08:44:52;14.87;;;10.53;;
11078;SDS011;5592;49.234;7.268;2024-01-30T08:47:18;17.67;;;11.13;;
11078;SDS011;5592;49.234;7.268;2024-01-30T08:49:44;16.67;;;11.47;;
11078;SDS011;5592;49.234;7.268;2024-01-30T08:52:10;16.23;;;11.37;;
11078;SDS011;5592;49.234;7.268;2024-01-30T08:54:37;25.57;;;12.90;;
11078;SDS011;5592;49.234;7.268;2024-01-30T08:57:03;21.27;;;11.87;;
11078;SDS011;5592;49.234;7.268;2024-01-30T08:59:31;19.40;;;12.20;;
11078;SDS011;5592;49.234;7.268;2024-01-30T09:01:56;15.73;;;10.83;;
11078;SDS011;5592;49.234;7.268;2024-01-30T09:04:24;15.43;;;10.47;;
11078;SDS011;5592;49.234;7.268;2024-01-30T09:06:50;18.07;;;11.67;;
11078;SDS011;5592;49.234;7.268;2024-01-30T09:09:16;16.60;;;11.33;;
11078;SDS011;5592;49.234;7.268;2024-01-30T09:11:42;17.43;;;11.30;;
11078;SDS011;5592;49.234;7.268;2024-01-30T09:14:08;16.33;;;10.93;;
11078;SDS011;5592;49.234;7.268;2024-01-30T09:16:34;16.57;;;10.60;;
11078;SDS011;5592;49.234;7.268;2024-01-30T09:18:59;19.60;;;10.73;;
11078;SDS011;5592;49.234;7.268;2024-01-30T09:21:26;14.37;;;10.10;;
11078;SDS011;5592;49.234;7.268;2024-01-30T09:23:54;13.40;;;9.47;;
11078;SDS011;5592;49.234;7.268;2024-01-30T09:26:20;18.93;;;10.63;;
11078;SDS011;5592;49.234;7.268;2024-01-30T09:28:45;11.80;;;9.30;;
11078;SDS011;5592;49.234;7.268;2024-01-30T09:31:11;10.87;;;8.60;;
11078;SDS011;5592;49.234;7.268;2024-01-30T09:33:37;17.63;;;10.03;;
11078;SDS011;5592;49.234;7.268;2024-01-30T09:36:05;15.37;;;9.37;;
11078;SDS011;5592;49.234;7.268;2024-01-30T09:38:31;10.83;;;7.90;;
11078;SDS011;5592;49.234;7.268;2024-01-30T09:40:56;12.93;;;8.17;;
11078;SDS011;5592;49.234;7.268;2024-01-30T09:43:29;10.33;;;8.30;;
11078;SDS011;5592;49.234;7.268;2024-01-30T09:46:02;12.10;;;8.00;;
11078;SDS011;5592;49.234;7.268;2024-01-30T09:48:32;12.03;;;8.77;;
11078;SDS011;5592;49.234;7.268;2024-01-30T09:51:01;9.57;;;7.57;;
11078;SDS011;5592;49.234;7.268;2024-01-30T09:53:28;13.30;;;6.93;;
11078;SDS011;5592;49.234;7.268;2024-01-30T09:55:55;8.90;;;5.47;;
11078;SDS011;5592;49.234;7.268;2024-01-30T09:58:25;10.00;;;5.20;;
11078;SDS011;5592;49.234;7.268;2024-01-30T10:00:53;8.13;;;5.50;;
11078;SDS011;5592;49.234;7.268;2024-01-30T10:03:22;8.80;;;4.97;;
11078;SDS011;5592;49.234;7.268;2024-01-30T10:05:51;8.43;;;4.60;;
11078;SDS011;5592;49.234;7.268;2024-01-30T10:08:20;7.20;;;5.30;;
11078;SDS011;5592;49.234;7.268;2024-01-30T10:10:50;9.10;;;5.50;;
11078;SDS011;5592;49.234;7.268;2024-01-30T10:13:16;8.63;;;4.50;;
11078;SDS011;5592;49.234;7.268;2024-01-30T10:15:41;10.10;;;5.10;;
11078;SDS011;5592;49.234;7.268;2024-01-30T10:18:10;7.20;;;4.63;;
11078;SDS011;5592;49.234;7.268;2024-01-30T10:20:36;10.10;;;5.50;;
11078;SDS011;5592;49.234;7.268;2024-01-30T10:23:02;5.77;;;4.53;;
11078;SDS011;5592;49.234;7.268;2024-01-30T10:25:28;8.63;;;5.40;;
11078;SDS011;5592;49.234;7.268;2024-01-30T10:27:56;6.73;;;5.30;;
11078;SDS011;5592;49.234;7.268;2024-01-30T10:30:22;7.37;;;4.50;;
11078;SDS011;5592;49.234;7.268;2024-01-30T10:32:48;8.23;;;5.47;;
11078;SDS011;5592;49.234;7.268;2024-01-30T10:35:15;8.60;;;4.93;;
11078;SDS011;5592;49.234;7.268;2024-01-30T10:37:43;9.60;;;5.70;;
11078;SDS011;5592;49.234;7.268;2024-01-30T10:40:09;7.53;;;4.93;;
11078;SDS011;5592;49.234;7.268;2024-01-30T10:42:42;8.10;;;4.47;;
11078;SDS011;5592;49.234;7.268;2024-01-30T10:45:09;7.73;;;5.10;;
11078;SDS011;5592;49.234;7.268;2024-01-30T10:47:42;6.57;;;4.47;;
11078;SDS011;5592;49.234;7.268;2024-01-30T10:50:13;9.20;;;5.37;;
11078;SDS011;5592;49.234;7.268;2024-01-30T10:52:39;8.30;;;5.30;;
11078;SDS011;5592;49.234;7.268;2024-01-30T10:55:07;7.90;;;4.90;;
11078;SDS011;5592;49.234;7.268;2024-01-30T10:57:43;8.93;;;4.73;;
11078;SDS011;5592;49.234;7.268;2024-01-30T11:00:10;7.70;;;4.87;;
11078;SDS011;5592;49.234;7.268;2024-01-30T11:02:44;6.60;;;4.43;;
11078;SDS011;5592;49.234;7.268;2024-01-30T11:05:11;10.97;;;4.90;;
11078;SDS011;5592;49.234;7.268;2024-01-30T11:07:40;11.13;;;4.77;;
11078;SDS011;5592;49.234;7.268;2024-01-30T11:10:07;7.63;;;4.67;;
11078;SDS011;5592;49.234;7.268;2024-01-30T11:12:40;8.37;;;4.87;;
11078;SDS011;5592;49.234;7.268;2024-01-30T11:15:10;8.50;;;5.13;;
11078;SDS011;5592;49.234;7.268;2024-01-30T11:20:29;10.50;;;4.90;;
11078;SDS011;5592;49.234;7.268;2024-01-30T11:23:00;9.33;;;4.13;;
11078;SDS011;5592;49.234;7.268;2024-01-30T11:25:31;7.10;;;5.00;;
11078;SDS011;5592;49.234;7.268;2024-01-30T11:28:03;6.67;;;5.20;;
11078;SDS011;5592;49.234;7.268;2024-01-30T11:30:32;7.83;;;4.97;;
11078;SDS011;5592;49.234;7.268;2024-01-30T11:35:30;10.47;;;5.30;;
11078;SDS011;5592;49.234;7.268;2024-01-30T11:38:04;7.30;;;4.50;;
11078;SDS011;5592;49.234;7.268;2024-01-30T11:40:31;6.80;;;4.67;;
11078;SDS011;5592;49.234;7.268;2024-01-30T11:42:58;9.43;;;4.57;;
11078;SDS011;5592;49.234;7.268;2024-01-30T11:45:26;5.50;;;4.80;;
11078;SDS011;5592;49.234;7.268;2024-01-30T11:47:52;11.43;;;4.60;;
11078;SDS011;5592;49.234;7.268;2024-01-30T11:50:18;5.87;;;4.83;;
11078;SDS011;5592;49.234;7.268;2024-01-30T11:52:44;8.30;;;4.50;;
11078;SDS011;5592;49.234;7.268;2024-01-30T11:55:11;7.63;;;4.93;;
11078;SDS011;5592;49.234;7.268;2024-01-30T11:57:38;14.40;;;5.10;;
11078;SDS011;5592;49.234;7.268;2024-01-30T12:00:04;10.93;;;5.60;;
11078;SDS011;5592;49.234;7.268;2024-01-30T12:02:36;7.07;;;4.27;;
11078;SDS011;5592;49.234;7.268;2024-01-30T12:05:05;6.73;;;4.60;;
11078;SDS011;5592;49.234;7.268;2024-01-30T12:07:32;6.43;;;4.33;;
11078;SDS011;5592;49.234;7.268;2024-01-30T12:09:58;7.27;;;5.43;;
11078;SDS011;5592;49.234;7.268;2024-01-30T12:12:24;9.90;;;5.53;;
11078;SDS011;5592;49.234;7.268;2024-01-30T12:14:51;6.63;;;4.90;;
11078;SDS011;5592;49.234;7.268;2024-01-30T12:17:23;8.77;;;4.73;;
11078;SDS011;5592;49.234;7.268;2024-01-30T12:19:51;8.80;;;5.10;;
11078;SDS011;5592;49.234;7.268;2024-01-30T12:22:27;7.93;;;5.10;;
11078;SDS011;5592;49.234;7.268;2024-01-30T12:24:53;10.20;;;5.00;;
11078;SDS011;5592;49.234;7.268;2024-01-30T12:27:18;9.57;;;4.90;;
11078;SDS011;5592;49.234;7.268;2024-01-30T12:29:44;5.87;;;4.17;;
11078;SDS011;5592;49.234;7.268;2024-01-30T12:32:14;11.63;;;5.70;;
11078;SDS011;5592;49.234;7.268;2024-01-30T12:34:41;9.10;;;4.90;;
11078;SDS011;5592;49.234;7.268;2024-01-30T12:37:07;9.20;;;5.10;;
11078;SDS011;5592;49.234;7.268;2024-01-30T12:39:34;8.17;;;5.07;;
11078;SDS011;5592;49.234;7.268;2024-01-30T12:42:00;7.60;;;5.23;;
11078;SDS011;5592;49.234;7.268;2024-01-30T12:44:26;11.33;;;5.37;;
11078;SDS011;5592;49.234;7.268;2024-01-30T12:46:52;12.53;;;5.10;;
11078;SDS011;5592;49.234;7.268;2024-01-30T12:49:17;8.07;;;5.00;;
11078;SDS011;5592;49.234;7.268;2024-01-30T12:51:43;9.47;;;4.60;;
11078;SDS011;5592;49.234;7.268;2024-01-30T12:54:08;7.53;;;5.07;;
11078;SDS011;5592;49.234;7.268;2024-01-30T12:56:34;8.07;;;5.17;;
11078;SDS011;5592;49.234;7.268;2024-01-30T12:59:00;8.23;;;4.50;;
11078;SDS011;5592;49.234;7.268;2024-01-30T13:01:27;7.00;;;4.93;;
11078;SDS011;5592;49.234;7.268;2024-01-30T13:03:53;10.77;;;4.53;;
11078;SDS011;5592;49.234;7.268;2024-01-30T13:06:18;10.50;;;5.07;;
11078;SDS011;5592;49.234;7.268;2024-01-30T13:08:44;6.70;;;4.87;;
11078;SDS011;5592;49.234;7.268;2024-01-30T13:11:09;9.50;;;4.40;;
11078;SDS011;5592;49.234;7.268;2024-01-30T13:13:37;6.23;;;4.70;;
11078;SDS011;5592;49.234;7.268;2024-01-30T13:16:05;9.07;;;5.60;;
11078;SDS011;5592;49.234;7.268;2024-01-30T13:18:31;7.93;;;4.70;;
11078;SDS011;5592;49.234;7.268;2024-01-30T13:20:56;7.30;;;5.50;;
11078;SDS011;5592;49.234;7.268;2024-01-30T13:23:22;8.50;;;5.27;;
11078;SDS011;5592;49.234;7.268;2024-01-30T13:25:48;10.30;;;5.23;;
11078;SDS011;5592;49.234;7.268;2024-01-30T13:28:14;11.10;;;4.90;;
11078;SDS011;5592;49.234;7.268;2024-01-30T13:30:39;6.83;;;5.20;;
11078;SDS011;5592;49.234;7.268;2024-01-30T13:33:05;7.10;;;4.50;;
11078;SDS011;5592;49.234;7.268;2024-01-30T13:35:30;10.87;;;5.17;;
11078;SDS011;5592;49.234;7.268;2024-01-30T13:37:56;9.23;;;5.57;;
11078;SDS011;5592;49.234;7.268;2024-01-30T13:40:21;6.10;;;4.80;;
11078;SDS011;5592;49.234;7.268;2024-01-30T13:42:47;8.07;;;5.70;;
11078;SDS011;5592;49.234;7.268;2024-01-30T13:45:13;10.53;;;5.03;;
11078;SDS011;5592;49.234;7.268;2024-01-30T13:47:38;5.20;;;4.47;;
11078;SDS011;5592;49.234;7.268;2024-01-30T13:50:05;7.13;;;5.10;;
11078;SDS011;5592;49.234;7.268;2024-01-30T13:52:31;8.50;;;4.80;;
11078;SDS011;5592;49.234;7.268;2024-01-30T13:54:56;7.33;;;4.50;;
11078;SDS011;5592;49.234;7.268;2024-01-30T13:57:22;6.83;;;5.00;;
11078;SDS011;5592;49.234;7.268;2024-01-30T13:59:48;5.43;;;4.23;;
11078;SDS011;5592;49.234;7.268;2024-01-30T14:02:14;6.87;;;5.00;;
11078;SDS011;5592;49.234;7.268;2024-01-30T14:04:39;6.37;;;3.90;;
11078;SDS011;5592;49.234;7.268;2024-01-30T14:07:05;6.97;;;4.50;;
11078;SDS011;5592;49.234;7.268;2024-01-30T14:09:31;9.30;;;5.20;;
11078;SDS011;5592;49.234;7.268;2024-01-30T14:11:57;7.90;;;5.10;;
11078;SDS011;5592;49.234;7.268;2024-01-30T14:14:23;6.23;;;4.53;;
11078;SDS011;5592;49.234;7.268;2024-01-30T14:16:49;7.47;;;5.03;;
11078;SDS011;5592;49.234;7.268;2024-01-30T14:19:14;8.53;;;5.47;;
11078;SDS011;5592;49.234;7.268;2024-01-30T14:21:40;6.70;;;5.10;;
11078;SDS011;5592;49.234;7.268;2024-01-30T14:24:06;9.50;;;4.87;;
11078;SDS011;5592;49.234;7.268;2024-01-30T14:26:31;7.10;;;5.47;;
11078;SDS011;5592;49.234;7.268;2024-01-30T14:28:57;8.63;;;4.63;;
11078;SDS011;5592;49.234;7.268;2024-01-30T14:31:22;7.10;;;5.07;;
11078;SDS011;5592;49.234;7.268;2024-01-30T14:33:49;8.77;;;5.80;;
11078;SDS011;5592;49.234;7.268;2024-01-30T14:36:15;9.90;;;5.10;;
11078;SDS011;5592;49.234;7.268;2024-01-30T14:38:44;8.30;;;5.40;;
11078;SDS011;5592;49.234;7.268;2024-01-30T14:41:10;7.10;;;5.17;;
11078;SDS011;5592;49.234;7.268;2024-01-30T14:43:35;7.83;;;5.10;;